»·PEaware :: N198JT KYKM-KAWO

N198JT :: KYKM-KAWO

FLIGHT INFORMATION

Flight Status: Arrived
Operator: Privately registered:
United States
More flights under this callsign
Pilot: Jeremy T. (18871)
Aircraft: PIPER PA-24 COMMANCHE
(PA24)
More flights by this aircraft type
Origin: KYKM Yakima Air Term/Mcallister
United States
Destination: KAWO Arlington Mun
United States
More flights between these airports :: More routes between these airports
Route: +YKM7 YKM TMBOB BANDR
File this flight plan on PilotEdge
Remarks:
Altitude:
(Current/Filed)
10,000ft
Speed:
(Current/Filed)
150kts
Departed: 11-Apr-20 11:11 AM
Arrived: 11-Apr-20 12:13 PM
Distance/Time
Traveled:
116nm/1:01
Distance/Time
To Go:
Arrived

Flight Plot

Page will automatically refresh every two minutes.


Map Options




Map Legend


Flown Route
Filed Route
Departure Airport
Arrival Airport
Navaid (VOR, NDB)
Fix

Horizontal Profiles

Position Reports

Time Latitude Longitude Heading Altitude Ground
Speed
11-Apr-20 10:36 46.569809 -120.537717 267 1058ft 0kts
11-Apr-20 10:37 46.569809 -120.537722 267 1058ft 0kts
11-Apr-20 10:40 46.569808 -120.537735 267 1058ft 0kts
11-Apr-20 10:41 46.569808 -120.537740 267 1058ft 0kts
11-Apr-20 10:42 46.569808 -120.537744 267 1058ft 0kts
11-Apr-20 10:43 46.569808 -120.537748 267 1058ft 0kts
11-Apr-20 10:44 46.569808 -120.537753 267 1058ft 0kts
11-Apr-20 10:45 46.569808 -120.537757 267 1058ft 0kts
11-Apr-20 10:46 46.569807 -120.537762 267 1058ft 0kts
11-Apr-20 10:47 46.569807 -120.537766 267 1058ft 0kts
11-Apr-20 10:48 46.569807 -120.537770 267 1058ft 0kts
11-Apr-20 10:49 46.569807 -120.537775 267 1058ft 0kts
11-Apr-20 10:50 46.569807 -120.537780 267 1058ft 0kts
11-Apr-20 10:51 46.569807 -120.537784 267 1058ft 0kts
11-Apr-20 10:52 46.569807 -120.537788 267 1058ft 0kts
11-Apr-20 10:53 46.569806 -120.537793 267 1058ft 0kts
11-Apr-20 10:54 46.569806 -120.537797 267 1058ft 0kts
11-Apr-20 10:55 46.569806 -120.537802 267 1058ft 0kts
11-Apr-20 10:56 46.569806 -120.537806 267 1058ft 0kts
11-Apr-20 10:57 46.569806 -120.537811 267 1058ft 0kts
11-Apr-20 10:58 46.569806 -120.537815 267 1058ft 0kts
11-Apr-20 10:59 46.569806 -120.537823 267 1058ft 0kts
11-Apr-20 11:00 46.569805 -120.537830 267 1058ft 0kts
11-Apr-20 11:01 46.569805 -120.537835 267 1058ft 0kts
11-Apr-20 11:02 46.569805 -120.537839 267 1058ft 0kts
11-Apr-20 11:03 46.568785 -120.539853 289 1058ft 19kts
11-Apr-20 11:04 46.571134 -120.549232 290 1058ft 26kts
11-Apr-20 11:05 46.572230 -120.555254 196 1058ft 0kts
11-Apr-20 11:06 46.572227 -120.555255 196 1058ft 0kts
11-Apr-20 11:07 46.572224 -120.555257 196 1058ft 0kts
11-Apr-20 11:08 46.572222 -120.555258 196 1058ft 0kts
11-Apr-20 11:09 46.571359 -120.554770 109 1058ft 0kts
11-Apr-20 11:10 46.562539 -120.527247 111 1725ft 104kts
11-Apr-20 11:12 46.565861 -120.487009 69 2789ft 101kts
11-Apr-20 11:13 46.573416 -120.446968 62 3791ft 103kts
11-Apr-20 11:14 46.596530 -120.453343 328 4761ft 99kts
11-Apr-20 11:15 46.614584 -120.483526 300 5629ft 105kts
11-Apr-20 11:16 46.635476 -120.509805 331 6583ft 99kts
11-Apr-20 11:17 46.659224 -120.530364 333 7659ft 100kts
11-Apr-20 11:18 46.683437 -120.550310 333 8802ft 99kts
11-Apr-20 11:19 46.707859 -120.570177 332 9603ft 100kts
11-Apr-20 11:20 46.733536 -120.585966 339 10344ft 101kts
11-Apr-20 11:21 46.764363 -120.601076 338 10207ft 125kts
11-Apr-20 11:22 46.797979 -120.621518 329 9867ft 133kts
11-Apr-20 11:23 46.829625 -120.647930 329 10009ft 132kts
11-Apr-20 11:24 46.862057 -120.675068 329 10014ft 135kts
11-Apr-20 11:25 46.894995 -120.702591 330 10015ft 137kts
11-Apr-20 11:26 46.928117 -120.730338 330 10016ft 137kts
11-Apr-20 11:27 46.961504 -120.758224 330 10015ft 137kts
11-Apr-20 11:28 46.994544 -120.785986 330 10015ft 136kts
11-Apr-20 11:29 47.027608 -120.813739 330 10017ft 137kts
11-Apr-20 11:30 47.060898 -120.841694 330 10019ft 137kts
11-Apr-20 11:31 47.093915 -120.869516 330 10022ft 136kts
11-Apr-20 11:31 47.121374 -120.892558 330 10028ft 135kts
11-Apr-20 11:33 47.159512 -120.924669 330 10033ft 135kts
11-Apr-20 11:34 47.180717 -120.966153 282 10042ft 142kts
11-Apr-20 11:34 47.185202 -121.014142 286 10031ft 142kts
11-Apr-20 11:35 47.193443 -121.070921 287 10038ft 142kts
11-Apr-20 11:36 47.202350 -121.127471 290 10043ft 142kts
11-Apr-20 11:38 47.214185 -121.192989 290 10043ft 142kts
11-Apr-20 11:38 47.221917 -121.240148 288 10042ft 142kts
11-Apr-20 11:39 47.230489 -121.297096 288 10041ft 142kts
11-Apr-20 11:40 47.239035 -121.354279 288 10041ft 143kts
11-Apr-20 11:41 47.247489 -121.411473 288 10043ft 143kts
11-Apr-20 11:42 47.256061 -121.468733 288 10045ft 143kts
11-Apr-20 11:43 47.282485 -121.504485 333 10056ft 136kts
11-Apr-20 11:44 47.316889 -121.528907 334 10058ft 137kts
11-Apr-20 11:45 47.350618 -121.555397 332 10062ft 137kts
11-Apr-20 11:46 47.384262 -121.582048 332 10103ft 134kts
11-Apr-20 11:47 47.418331 -121.609548 332 9874ft 142kts
11-Apr-20 11:48 47.452806 -121.636754 333 9877ft 139kts
11-Apr-20 11:49 47.487259 -121.662651 334 9892ft 139kts
11-Apr-20 11:50 47.521832 -121.688251 334 9904ft 139kts
11-Apr-20 11:51 47.557190 -121.713810 335 9600ft 145kts
11-Apr-20 11:52 47.593905 -121.740446 335 8978ft 148kts
11-Apr-20 11:53 47.630580 -121.767458 335 8401ft 147kts
11-Apr-20 11:54 47.665714 -121.797989 321 7817ft 148kts
11-Apr-20 11:55 47.696939 -121.836588 324 7302ft 146kts
11-Apr-20 11:56 47.729124 -121.873391 326 6677ft 145kts
11-Apr-20 11:57 47.761984 -121.907992 327 6074ft 144kts
11-Apr-20 11:58 47.794822 -121.942273 327 5485ft 143kts
11-Apr-20 11:59 47.827802 -121.976091 327 4889ft 144kts
11-Apr-20 12:00 47.861421 -122.009672 327 4130ft 145kts
11-Apr-20 12:01 47.895180 -122.042322 327 3527ft 146kts
11-Apr-20 12:02 47.927777 -122.076835 320 3011ft 138kts
11-Apr-20 12:03 47.958419 -122.111664 321 2254ft 135kts
11-Apr-20 12:04 47.988546 -122.139114 338 1857ft 117kts
11-Apr-20 12:05 48.016666 -122.149949 357 1546ft 88kts
11-Apr-20 12:06 48.040936 -122.153034 359 1624ft 96kts
11-Apr-20 12:07 48.067186 -122.154036 354 1549ft 87kts
11-Apr-20 12:08 48.091267 -122.154768 356 1095ft 81kts
11-Apr-20 12:09 48.111728 -122.154957 357 876ft 82kts
11-Apr-20 12:10 48.133302 -122.155554 356 715ft 73kts
11-Apr-20 12:11 48.153234 -122.156201 355 179ft 66kts
11-Apr-20 12:12 48.163195 -122.156381 0 134ft 13kts
11-Apr-20 12:13 48.164608 -122.155392 86 134ft 0kts
11-Apr-20 12:14 48.162203 -122.154369 179 134ft 20kts
11-Apr-20 12:15 48.161316 -122.153207 175 134ft 0kts
11-Apr-20 12:16 48.161316 -122.153207 175 134ft 0kts
11-Apr-20 12:17 48.161316 -122.153207 175 134ft 0kts
11-Apr-20 12:18 48.161316 -122.153207 175 134ft 0kts

Navigation Log

Ident Type
Flight plan parsing failed, navigation log unavailable